Terminal Aerodrome Forecast
Issued by NWS Goodland, KS

Home | Current Version | Previous Version | Text Only | Print | Product List | Glossary On
Versions: 1 2 3 4 5 6 7 8 9 10 11 12 13 14 15 16 17
000
FTUS43 KGLD 250500 RRA
TAFGLD
TAF
KGLD 250543Z 2506/2606 25010KT P6SM SCT150 BKN200
     FM251100 29007KT P6SM SCT150
     FM251400 34013G24KT P6SM SCT150
     FM252100 01010KT P6SM BKN150
     FM260000 VRB06KT P6SM VCTS SCT050CB BKN150=

USA.gov is the U.S. government's official web portal to all federal, state and local government web resources and services.